sensor_id;sensor_type;location;lat;lon;timestamp;pressure;altitude;pressure_sealevel;temperature;humidity
40075;BME280;26529;51.530;11.754;2023-04-01T00:00:52;98227.72;;;19.23;45.50
40075;BME280;26529;51.530;11.754;2023-04-01T00:03:19;98225.19;;;19.22;45.85
40075;BME280;26529;51.530;11.754;2023-04-01T00:05:46;98229.69;;;19.21;45.65
40075;BME280;26529;51.530;11.754;2023-04-01T00:08:11;98229.69;;;19.21;45.82
40075;BME280;26529;51.530;11.754;2023-04-01T00:10:37;98233.03;;;19.23;45.56
40075;BME280;26529;51.530;11.754;2023-04-01T00:13:03;98227.03;;;19.21;45.60
40075;BME280;26529;51.530;11.754;2023-04-01T00:15:29;98226.03;;;19.22;45.68
40075;BME280;26529;51.530;11.754;2023-04-01T00:17:54;98231.34;;;19.22;45.59
40075;BME280;26529;51.530;11.754;2023-04-01T00:20:20;98226.84;;;19.23;45.61
40075;BME280;26529;51.530;11.754;2023-04-01T00:22:46;98227.03;;;19.21;45.59
40075;BME280;26529;51.530;11.754;2023-04-01T00:25:11;98222.69;;;19.20;45.69
40075;BME280;26529;51.530;11.754;2023-04-01T00:27:37;98219.06;;;19.21;45.85
40075;BME280;26529;51.530;11.754;2023-04-01T00:30:03;98220.88;;;19.21;45.82
40075;BME280;26529;51.530;11.754;2023-04-01T00:32:29;98219.06;;;19.21;45.50
40075;BME280;26529;51.530;11.754;2023-04-01T00:34:55;98224.38;;;19.21;45.56
40075;BME280;26529;51.530;11.754;2023-04-01T00:37:21;98219.19;;;19.20;45.63
40075;BME280;26529;51.530;11.754;2023-04-01T00:39:48;98216.41;;;19.21;45.62
40075;BME280;26529;51.530;11.754;2023-04-01T00:42:13;98208.44;;;19.21;45.63
40075;BME280;26529;51.530;11.754;2023-04-01T00:44:39;98211.09;;;19.21;45.60
40075;BME280;26529;51.530;11.754;2023-04-01T00:47:05;98209.25;;;19.22;45.61
40075;BME280;26529;51.530;11.754;2023-04-01T00:49:39;98208.44;;;19.21;45.70
40075;BME280;26529;51.530;11.754;2023-04-01T00:52:08;98211.09;;;19.21;45.65
40075;BME280;26529;51.530;11.754;2023-04-01T00:54:35;98208.44;;;19.21;45.57
40075;BME280;26529;51.530;11.754;2023-04-01T00:57:05;98212.91;;;19.21;45.49
40075;BME280;26529;51.530;11.754;2023-04-01T00:59:39;98212.06;;;19.20;45.60
40075;BME280;26529;51.530;11.754;2023-04-01T01:02:08;98210.38;;;19.19;45.65
40075;BME280;26529;51.530;11.754;2023-04-01T01:04:35;98209.41;;;19.20;45.67
40075;BME280;26529;51.530;11.754;2023-04-01T01:07:13;98211.22;;;19.20;45.82
40075;BME280;26529;51.530;11.754;2023-04-01T01:09:51;98208.72;;;19.18;45.53
40075;BME280;26529;51.530;11.754;2023-04-01T01:12:50;98212.22;;;19.19;45.79
40075;BME280;26529;51.530;11.754;2023-04-01T01:15:36;98205.91;;;19.20;45.56
40075;BME280;26529;51.530;11.754;2023-04-01T01:21:04;98200.75;;;19.18;45.63
40075;BME280;26529;51.530;11.754;2023-04-01T01:34:39;98205.91;;;19.20;45.54
40075;BME280;26529;51.530;11.754;2023-04-01T01:37:11;98196.41;;;19.17;45.73
40075;BME280;26529;51.530;11.754;2023-04-01T01:39:40;98200.75;;;19.18;45.84
40075;BME280;26529;51.530;11.754;2023-04-01T01:42:11;98203.41;;;19.18;45.55
40075;BME280;26529;51.530;11.754;2023-04-01T01:44:38;98200.75;;;19.18;45.71
40075;BME280;26529;51.530;11.754;2023-04-01T01:47:05;98205.06;;;19.19;45.58
40075;BME280;26529;51.530;11.754;2023-04-01T01:49:32;98202.56;;;19.18;45.77
40075;BME280;26529;51.530;11.754;2023-04-01T01:51:59;98206.91;;;19.19;45.59
40075;BME280;26529;51.530;11.754;2023-04-01T01:54:25;98203.53;;;19.17;45.69
40075;BME280;26529;51.530;11.754;2023-04-01T01:56:57;98200.88;;;19.17;45.79
40075;BME280;26529;51.530;11.754;2023-04-01T01:59:27;98206.06;;;19.18;45.73
40075;BME280;26529;51.530;11.754;2023-04-01T02:01:56;98206.06;;;19.18;45.65
40075;BME280;26529;51.530;11.754;2023-04-01T02:04:22;98198.09;;;19.18;45.72
40075;BME280;26529;51.530;11.754;2023-04-01T02:07:02;98204.38;;;19.17;45.61
40075;BME280;26529;51.530;11.754;2023-04-01T02:09:29;98196.41;;;19.17;45.48
40075;BME280;26529;51.530;11.754;2023-04-01T02:11:58;98200.75;;;19.18;45.60
40075;BME280;26529;51.530;11.754;2023-04-01T02:14:28;98203.41;;;19.18;45.45
40075;BME280;26529;51.530;11.754;2023-04-01T02:17:05;98198.09;;;19.18;45.61
40075;BME280;26529;51.530;11.754;2023-04-01T02:19:36;98197.25;;;19.18;45.54
40075;BME280;26529;51.530;11.754;2023-04-01T02:22:06;98200.75;;;19.18;45.60
40075;BME280;26529;51.530;11.754;2023-04-01T02:24:35;98203.41;;;19.18;45.42
40075;BME280;26529;51.530;11.754;2023-04-01T02:27:01;98200.88;;;19.17;45.74
40075;BME280;26529;51.530;11.754;2023-04-01T02:29:29;98202.41;;;19.19;45.61
40075;BME280;26529;51.530;11.754;2023-04-01T02:31:55;98202.56;;;19.18;45.59
40075;BME280;26529;51.530;11.754;2023-04-01T02:34:22;98203.41;;;19.18;45.53
40075;BME280;26529;51.530;11.754;2023-04-01T02:36:49;98206.06;;;19.18;45.55
40075;BME280;26529;51.530;11.754;2023-04-01T02:39:15;98206.06;;;19.18;45.66
40075;BME280;26529;51.530;11.754;2023-04-01T02:41:43;98208.72;;;19.18;45.55
40075;BME280;26529;51.530;11.754;2023-04-01T02:44:11;98212.34;;;19.17;45.51
40075;BME280;26529;51.530;11.754;2023-04-01T02:46:37;98210.69;;;19.16;45.58
40075;BME280;26529;51.530;11.754;2023-04-01T02:49:03;98222.00;;;19.18;45.70
40075;BME280;26529;51.530;11.754;2023-04-01T02:51:30;98220.34;;;19.17;45.64
40075;BME280;26529;51.530;11.754;2023-04-01T02:53:55;98221.16;;;19.18;45.64
40075;BME280;26529;51.530;11.754;2023-04-01T02:56:21;98229.13;;;19.18;45.58
40075;BME280;26529;51.530;11.754;2023-04-01T02:58:47;98233.59;;;19.17;45.50
40075;BME280;26529;51.530;11.754;2023-04-01T03:01:12;98229.28;;;19.16;45.74
40075;BME280;26529;51.530;11.754;2023-04-01T03:03:38;98233.59;;;19.17;45.50
40075;BME280;26529;51.530;11.754;2023-04-01T03:06:07;98234.44;;;19.18;45.67
40075;BME280;26529;51.530;11.754;2023-04-01T03:08:33;98234.44;;;19.18;45.52
40075;BME280;26529;51.530;11.754;2023-04-01T03:10:59;98236.25;;;19.17;45.48
40075;BME280;26529;51.530;11.754;2023-04-01T03:13:25;98238.94;;;19.17;45.57
40075;BME280;26529;51.530;11.754;2023-04-01T03:15:51;98231.94;;;19.16;45.71
40075;BME280;26529;51.530;11.754;2023-04-01T03:18:16;98236.25;;;19.17;45.59
40075;BME280;26529;51.530;11.754;2023-04-01T03:20:42;98232.75;;;19.17;45.73
40075;BME280;26529;51.530;11.754;2023-04-01T03:23:08;98232.75;;;19.17;45.78
40075;BME280;26529;51.530;11.754;2023-04-01T03:25:33;98237.25;;;19.16;45.68
40075;BME280;26529;51.530;11.754;2023-04-01T03:27:59;98236.41;;;19.16;45.73
40075;BME280;26529;51.530;11.754;2023-04-01T03:30:26;98240.91;;;19.15;45.78
40075;BME280;26529;51.530;11.754;2023-04-01T03:32:51;98245.22;;;19.16;45.67
40075;BME280;26529;51.530;11.754;2023-04-01T03:35:17;98248.69;;;19.17;45.58
40075;BME280;26529;51.530;11.754;2023-04-01T03:37:45;98243.56;;;19.15;45.69
40075;BME280;26529;51.530;11.754;2023-04-01T03:40:10;98243.56;;;19.15;45.66
40075;BME280;26529;51.530;11.754;2023-04-01T03:42:36;98247.88;;;19.16;45.67
40075;BME280;26529;51.530;11.754;2023-04-01T03:45:03;98251.34;;;19.17;45.72
40075;BME280;26529;51.530;11.754;2023-04-01T03:47:29;98245.22;;;19.16;45.68
40075;BME280;26529;51.530;11.754;2023-04-01T03:49:54;98256.00;;;19.15;45.62
40075;BME280;26529;51.530;11.754;2023-04-01T03:52:20;98246.22;;;19.15;45.65
40075;BME280;26529;51.530;11.754;2023-04-01T03:54:46;98245.38;;;19.15;45.80
40075;BME280;26529;51.530;11.754;2023-04-01T03:57:11;98255.00;;;19.16;45.58
40075;BME280;26529;51.530;11.754;2023-04-01T03:59:37;98256.84;;;19.15;45.59
40075;BME280;26529;51.530;11.754;2023-04-01T04:02:04;98261.31;;;19.15;45.76
40075;BME280;26529;51.530;11.754;2023-04-01T04:04:31;98255.13;;;19.14;45.55
40075;BME280;26529;51.530;11.754;2023-04-01T04:06:57;98261.31;;;19.15;45.78
40075;BME280;26529;51.530;11.754;2023-04-01T04:09:23;98260.44;;;19.14;45.56
40075;BME280;26529;51.530;11.754;2023-04-01T04:11:49;98262.16;;;19.15;45.73
40075;BME280;26529;51.530;11.754;2023-04-01T04:14:15;98263.09;;;19.14;45.67
40075;BME280;26529;51.530;11.754;2023-04-01T04:16:40;98263.09;;;19.14;45.68
40075;BME280;26529;51.530;11.754;2023-04-01T04:19:06;98260.44;;;19.14;45.55
40075;BME280;26529;51.530;11.754;2023-04-01T04:21:32;98262.28;;;19.14;45.63
40075;BME280;26529;51.530;11.754;2023-04-01T04:24:00;98265.50;;;19.17;45.50
40075;BME280;26529;51.530;11.754;2023-04-01T04:26:26;98271.09;;;19.14;45.47
40075;BME280;26529;51.530;11.754;2023-04-01T04:28:57;98271.09;;;19.14;45.60
40075;BME280;26529;51.530;11.754;2023-04-01T04:31:25;98275.44;;;19.15;45.67
40075;BME280;26529;51.530;11.754;2023-04-01T04:33:53;98276.41;;;19.14;45.70
40075;BME280;26529;51.530;11.754;2023-04-01T04:36:20;98288.72;;;19.15;45.67
40075;BME280;26529;51.530;11.754;2023-04-01T04:38:48;98281.72;;;19.14;45.53
40075;BME280;26529;51.530;11.754;2023-04-01T04:41:16;98279.91;;;19.15;45.62
40075;BME280;26529;51.530;11.754;2023-04-01T04:43:50;98275.56;;;19.14;45.63
40075;BME280;26529;51.530;11.754;2023-04-01T04:46:17;98278.22;;;19.14;45.68
40075;BME280;26529;51.530;11.754;2023-04-01T04:48:44;98280.03;;;19.13;45.48
40075;BME280;26529;51.530;11.754;2023-04-01T04:51:15;98281.72;;;19.14;45.70
40075;BME280;26529;51.530;11.754;2023-04-01T04:53:41;98281.88;;;19.13;45.57
40075;BME280;26529;51.530;11.754;2023-04-01T04:56:06;98287.03;;;19.14;45.43
40075;BME280;26529;51.530;11.754;2023-04-01T04:58:39;98287.03;;;19.14;45.55
40075;BME280;26529;51.530;11.754;2023-04-01T05:01:08;98287.88;;;19.15;45.59
40075;BME280;26529;51.530;11.754;2023-04-01T05:03:34;98284.38;;;19.14;45.65
40075;BME280;26529;51.530;11.754;2023-04-01T05:06:00;98283.53;;;19.14;45.55
40075;BME280;26529;51.530;11.754;2023-04-01T05:08:25;98283.69;;;19.12;45.48
40075;BME280;26529;51.530;11.754;2023-04-01T05:10:51;98287.88;;;19.15;45.65
40075;BME280;26529;51.530;11.754;2023-04-01T05:13:16;98281.72;;;19.14;45.70
40075;BME280;26529;51.530;11.754;2023-04-01T05:15:45;98284.38;;;19.14;45.62
40075;BME280;26529;51.530;11.754;2023-04-01T05:18:11;98289.53;;;19.16;45.48
40075;BME280;26529;51.530;11.754;2023-04-01T05:20:37;98286.19;;;19.14;45.68
40075;BME280;26529;51.530;11.754;2023-04-01T05:23:02;98289.69;;;19.14;45.65
40075;BME280;26529;51.530;11.754;2023-04-01T05:25:28;98289.69;;;19.14;45.74
40075;BME280;26529;51.530;11.754;2023-04-01T05:27:53;98289.69;;;19.14;45.56
40075;BME280;26529;51.530;11.754;2023-04-01T05:30:19;98295.97;;;19.13;45.60
40075;BME280;26529;51.530;11.754;2023-04-01T05:33:05;98290.66;;;19.13;45.56
40075;BME280;26529;51.530;11.754;2023-04-01T05:35:31;98295.00;;;19.14;45.57
40075;BME280;26529;51.530;11.754;2023-04-01T05:37:57;98289.84;;;19.13;45.69
40075;BME280;26529;51.530;11.754;2023-04-01T05:40:22;98294.31;;;19.12;45.63
40075;BME280;26529;51.530;11.754;2023-04-01T05:42:48;98301.16;;;19.15;45.65
40075;BME280;26529;51.530;11.754;2023-04-01T05:45:14;98300.31;;;19.14;45.76
40075;BME280;26529;51.530;11.754;2023-04-01T05:48:00;98302.97;;;19.14;45.57
40075;BME280;26529;51.530;11.754;2023-04-01T05:50:29;98302.97;;;19.14;45.56
40075;BME280;26529;51.530;11.754;2023-04-01T05:52:55;98295.97;;;19.13;45.57
40075;BME280;26529;51.530;11.754;2023-04-01T05:55:21;98295.16;;;19.13;45.64
40075;BME280;26529;51.530;11.754;2023-04-01T05:57:49;98302.13;;;19.14;45.66
40075;BME280;26529;51.530;11.754;2023-04-01T06:00:15;98301.28;;;19.13;45.61
40075;BME280;26529;51.530;11.754;2023-04-01T06:02:41;98299.63;;;19.12;45.71
40075;BME280;26529;51.530;11.754;2023-04-01T06:07:36;98302.97;;;19.14;45.54
40075;BME280;26529;51.530;11.754;2023-04-01T06:10:10;98306.59;;;19.13;45.62
40075;BME280;26529;51.530;11.754;2023-04-01T06:15:36;98315.28;;;19.15;45.48
40075;BME280;26529;51.530;11.754;2023-04-01T06:21:21;98321.72;;;19.13;45.58
40075;BME280;26529;51.530;11.754;2023-04-01T06:27:00;98325.06;;;19.15;45.67
40075;BME280;26529;51.530;11.754;2023-04-01T06:40:38;98327.56;;;19.16;45.47
40075;BME280;26529;51.530;11.754;2023-04-01T06:43:25;98333.88;;;19.15;45.69
40075;BME280;26529;51.530;11.754;2023-04-01T06:46:19;98327.56;;;19.16;45.45
40075;BME280;26529;51.530;11.754;2023-04-01T06:52:16;98332.03;;;19.16;45.78
40075;BME280;26529;51.530;11.754;2023-04-01T06:58:22;98332.03;;;19.16;45.73
40075;BME280;26529;51.530;11.754;2023-04-01T07:01:02;98331.22;;;19.15;45.66
40075;BME280;26529;51.530;11.754;2023-04-01T07:03:34;98333.72;;;19.17;45.62
40075;BME280;26529;51.530;11.754;2023-04-01T07:06:08;98334.56;;;19.17;45.55
40075;BME280;26529;51.530;11.754;2023-04-01T07:08:41;98334.56;;;19.17;45.40
40075;BME280;26529;51.530;11.754;2023-04-01T07:11:22;98330.22;;;19.16;45.56
40075;BME280;26529;51.530;11.754;2023-04-01T07:14:34;98330.38;;;19.15;45.69
40075;BME280;26529;51.530;11.754;2023-04-01T07:17:27;98336.53;;;19.15;45.74
40075;BME280;26529;51.530;11.754;2023-04-01T07:20:12;98332.03;;;19.16;45.66
40075;BME280;26529;51.530;11.754;2023-04-01T07:22:52;98334.56;;;19.17;45.59
40075;BME280;26529;51.530;11.754;2023-04-01T07:25:48;98329.38;;;19.16;45.61
40075;BME280;26529;51.530;11.754;2023-04-01T07:28:39;98337.22;;;19.17;45.60
40075;BME280;26529;51.530;11.754;2023-04-01T07:31:49;98339.88;;;19.17;45.48
40075;BME280;26529;51.530;11.754;2023-04-01T07:34:44;98338.22;;;19.16;45.60
40075;BME280;26529;51.530;11.754;2023-04-01T07:37:31;98346.00;;;19.18;45.55
40075;BME280;26529;51.530;11.754;2023-04-01T07:46:07;98349.66;;;19.17;45.53
40075;BME280;26529;51.530;11.754;2023-04-01T07:52:24;98351.50;;;19.16;45.61
40075;BME280;26529;51.530;11.754;2023-04-01T07:55:18;98362.81;;;19.18;45.65
40075;BME280;26529;51.530;11.754;2023-04-01T07:58:05;98357.47;;;19.18;45.44
40075;BME280;26529;51.530;11.754;2023-04-01T08:00:44;98356.50;;;19.19;45.56
40075;BME280;26529;51.530;11.754;2023-04-01T08:06:28;98354.56;;;19.21;45.55
40075;BME280;26529;51.530;11.754;2023-04-01T08:20:50;98357.22;;;19.21;45.73
40075;BME280;26529;51.530;11.754;2023-04-01T08:23:19;98357.22;;;19.21;45.46
40075;BME280;26529;51.530;11.754;2023-04-01T08:26:19;98354.38;;;19.23;45.45
40075;BME280;26529;51.530;11.754;2023-04-01T08:28:54;98359.56;;;19.24;45.51
40075;BME280;26529;51.530;11.754;2023-04-01T08:31:31;98357.91;;;19.23;45.49
40075;BME280;26529;51.530;11.754;2023-04-01T08:34:02;98355.25;;;19.23;45.69
40075;BME280;26529;51.530;11.754;2023-04-01T08:36:34;98354.38;;;19.23;45.45
40075;BME280;26529;51.530;11.754;2023-04-01T08:39:15;98356.91;;;19.24;45.51
40075;BME280;26529;51.530;11.754;2023-04-01T08:47:52;98355.91;;;19.25;45.53
40075;BME280;26529;51.530;11.754;2023-04-01T08:56:20;98370.06;;;19.26;45.48
40075;BME280;26529;51.530;11.754;2023-04-01T09:02:05;98374.53;;;19.25;45.62
40075;BME280;26529;51.530;11.754;2023-04-01T09:05:32;98380.53;;;19.28;45.46
40075;BME280;26529;51.530;11.754;2023-04-01T09:08:11;98383.88;;;19.30;45.28
40075;BME280;26529;51.530;11.754;2023-04-01T09:10:59;98383.19;;;19.28;45.41
40075;BME280;26529;51.530;11.754;2023-04-01T09:17:56;98387.66;;;19.27;45.35
40075;BME280;26529;51.530;11.754;2023-04-01T09:21:04;98395.63;;;19.27;45.27
40075;BME280;26529;51.530;11.754;2023-04-01T09:27:00;98396.63;;;19.26;45.54
40075;BME280;26529;51.530;11.754;2023-04-01T09:32:26;98403.47;;;19.29;45.32
40075;BME280;26529;51.530;11.754;2023-04-01T09:38:28;98402.50;;;19.30;45.47
40075;BME280;26529;51.530;11.754;2023-04-01T09:44:09;98399.97;;;19.28;45.57
40075;BME280;26529;51.530;11.754;2023-04-01T09:49:32;98399.97;;;19.28;45.48
40075;BME280;26529;51.530;11.754;2023-04-01T09:52:17;98395.50;;;19.29;45.42
40075;BME280;26529;51.530;11.754;2023-04-01T10:03:41;98402.50;;;19.30;45.35
40075;BME280;26529;51.530;11.754;2023-04-01T10:18:14;98410.28;;;19.31;45.30
40075;BME280;26529;51.530;11.754;2023-04-01T10:20:56;98404.16;;;19.31;45.32
40075;BME280;26529;51.530;11.754;2023-04-01T10:26:36;98407.50;;;19.33;45.38
40075;BME280;26529;51.530;11.754;2023-04-01T10:30:04;98410.16;;;19.33;45.20
40075;BME280;26529;51.530;11.754;2023-04-01T10:51:01;98412.69;;;19.34;45.46
40075;BME280;26529;51.530;11.754;2023-04-01T10:57:02;98411.81;;;19.34;45.42
40075;BME280;26529;51.530;11.754;2023-04-01T11:00:23;98419.81;;;19.34;45.54
40075;BME280;26529;51.530;11.754;2023-04-01T11:07:11;98416.47;;;19.32;45.39
40075;BME280;26529;51.530;11.754;2023-04-01T11:26:33;98427.78;;;19.34;45.28
40075;BME280;26529;51.530;11.754;2023-04-01T11:29:31;98430.44;;;19.34;45.45
40075;BME280;26529;51.530;11.754;2023-04-01T11:35:18;98426.09;;;19.33;45.53
40075;BME280;26529;51.530;11.754;2023-04-01T11:38:18;98427.78;;;19.34;45.39
40075;BME280;26529;51.530;11.754;2023-04-01T11:40:53;98424.28;;;19.33;45.56
40075;BME280;26529;51.530;11.754;2023-04-01T11:43:39;98427.94;;;19.32;45.45
40075;BME280;26529;51.530;11.754;2023-04-01T11:47:25;98430.44;;;19.34;45.38
40075;BME280;26529;51.530;11.754;2023-04-01T11:52:52;98442.75;;;19.35;45.45
40075;BME280;26529;51.530;11.754;2023-04-01T11:55:28;98436.59;;;19.34;45.30
40075;BME280;26529;51.530;11.754;2023-04-01T12:03:33;98445.41;;;19.35;45.24
40075;BME280;26529;51.530;11.754;2023-04-01T12:06:19;98441.78;;;19.36;45.36
40075;BME280;26529;51.530;11.754;2023-04-01T12:17:36;98441.19;;;19.42;45.45
40075;BME280;26529;51.530;11.754;2023-04-01T12:20:30;98443.00;;;19.42;45.41
40075;BME280;26529;51.530;11.754;2023-04-01T12:26:13;98448.19;;;19.43;45.34
40075;BME280;26529;51.530;11.754;2023-04-01T12:31:37;98448.31;;;19.42;45.44
40075;BME280;26529;51.530;11.754;2023-04-01T12:34:37;98449.19;;;19.42;45.37
40075;BME280;26529;51.530;11.754;2023-04-01T12:37:21;98443.00;;;19.42;45.47
40075;BME280;26529;51.530;11.754;2023-04-01T12:40:02;98443.84;;;19.42;45.28
40075;BME280;26529;51.530;11.754;2023-04-01T12:42:40;98448.31;;;19.42;45.54
40075;BME280;26529;51.530;11.754;2023-04-01T12:45:30;98444.81;;;19.41;45.33
40075;BME280;26529;51.530;11.754;2023-04-01T12:54:22;98452.53;;;19.44;45.40
40075;BME280;26529;51.530;11.754;2023-04-01T13:02:55;98451.84;;;19.42;45.33
40075;BME280;26529;51.530;11.754;2023-04-01T13:05:41;98471.25;;;19.43;45.31
40075;BME280;26529;51.530;11.754;2023-04-01T13:08:24;98473.09;;;19.42;45.34
40075;BME280;26529;51.530;11.754;2023-04-01T13:11:18;98473.09;;;19.42;45.41
40075;BME280;26529;51.530;11.754;2023-04-01T13:16:43;98481.06;;;19.42;45.38
40075;BME280;26529;51.530;11.754;2023-04-01T13:19:21;98482.19;;;19.39;45.38
40075;BME280;26529;51.530;11.754;2023-04-01T13:22:14;98481.19;;;19.41;45.54
40075;BME280;26529;51.530;11.754;2023-04-01T13:27:38;98482.03;;;19.41;45.38
40075;BME280;26529;51.530;11.754;2023-04-01T13:30:22;98483.00;;;19.40;45.33
40075;BME280;26529;51.530;11.754;2023-04-01T13:36:28;98479.53;;;19.39;45.36
40075;BME280;26529;51.530;11.754;2023-04-01T13:42:00;98479.38;;;19.41;45.31
40075;BME280;26529;51.530;11.754;2023-04-01T13:44:38;98486.38;;;19.42;45.34
40075;BME280;26529;51.530;11.754;2023-04-01T13:47:21;98478.41;;;19.42;45.56
40075;BME280;26529;51.530;11.754;2023-04-01T13:53:04;98478.41;;;19.42;45.60
40075;BME280;26529;51.530;11.754;2023-04-01T13:55:59;98478.41;;;19.42;45.30
40075;BME280;26529;51.530;11.754;2023-04-01T14:01:32;98471.41;;;19.41;45.44
40075;BME280;26529;51.530;11.754;2023-04-01T14:04:20;98477.69;;;19.40;45.41
40075;BME280;26529;51.530;11.754;2023-04-01T14:07:00;98474.06;;;19.41;45.50
40075;BME280;26529;51.530;11.754;2023-04-01T14:09:41;98477.69;;;19.40;45.39
40075;BME280;26529;51.530;11.754;2023-04-01T14:12:19;98483.00;;;19.40;45.51
40075;BME280;26529;51.530;11.754;2023-04-01T14:15:07;98477.69;;;19.40;45.47
40075;BME280;26529;51.530;11.754;2023-04-01T14:18:06;98481.19;;;19.41;45.47
40075;BME280;26529;51.530;11.754;2023-04-01T14:20:38;98483.00;;;19.40;45.38
40075;BME280;26529;51.530;11.754;2023-04-01T14:26:31;98491.97;;;19.39;45.36
40075;BME280;26529;51.530;11.754;2023-04-01T14:32:16;98499.25;;;19.37;45.29
40075;BME280;26529;51.530;11.754;2023-04-01T14:43:24;98509.59;;;19.40;45.36
40075;BME280;26529;51.530;11.754;2023-04-01T14:46:06;98507.47;;;19.44;45.30
40075;BME280;26529;51.530;11.754;2023-04-01T14:48:37;98511.00;;;19.44;45.22
40075;BME280;26529;51.530;11.754;2023-04-01T14:51:15;98511.00;;;19.44;45.42
40075;BME280;26529;51.530;11.754;2023-04-01T14:53:51;98512.66;;;19.45;45.39
40075;BME280;26529;51.530;11.754;2023-04-01T14:56:35;98522.44;;;19.45;45.50
40075;BME280;26529;51.530;11.754;2023-04-01T14:59:01;98520.78;;;19.44;45.49
40075;BME280;26529;51.530;11.754;2023-04-01T15:02:16;98520.94;;;19.42;45.41
40075;BME280;26529;51.530;11.754;2023-04-01T15:08:27;98523.59;;;19.42;45.53
40075;BME280;26529;51.530;11.754;2023-04-01T15:22:44;98531.56;;;19.42;45.57
40075;BME280;26529;51.530;11.754;2023-04-01T15:33:11;98550.16;;;19.42;45.59
40075;BME280;26529;51.530;11.754;2023-04-01T15:36:02;98548.47;;;19.41;45.47
40075;BME280;26529;51.530;11.754;2023-04-01T15:41:15;98558.28;;;19.41;45.46
40075;BME280;26529;51.530;11.754;2023-04-01T15:43:48;98560.09;;;19.40;45.58
40075;BME280;26529;51.530;11.754;2023-04-01T15:51:46;98574.22;;;19.41;45.42
40075;BME280;26529;51.530;11.754;2023-04-01T15:54:46;98566.38;;;19.39;45.58
40075;BME280;26529;51.530;11.754;2023-04-01T15:57:40;98574.34;;;19.39;45.67
40075;BME280;26529;51.530;11.754;2023-04-01T16:03:13;98577.00;;;19.39;45.63
40075;BME280;26529;51.530;11.754;2023-04-01T16:13:48;98592.28;;;19.37;45.57
40075;BME280;26529;51.530;11.754;2023-04-01T16:18:56;98591.28;;;19.38;45.49
40075;BME280;26529;51.530;11.754;2023-04-01T16:21:37;98598.56;;;19.36;45.56
40075;BME280;26529;51.530;11.754;2023-04-01T16:24:24;98596.91;;;19.35;45.62
40075;BME280;26529;51.530;11.754;2023-04-01T16:27:20;98596.91;;;19.35;45.56
40075;BME280;26529;51.530;11.754;2023-04-01T16:29:55;98599.56;;;19.35;45.45
40075;BME280;26529;51.530;11.754;2023-04-01T16:32:45;98612.84;;;19.35;45.60
40075;BME280;26529;51.530;11.754;2023-04-01T16:38:09;98614.78;;;19.33;45.52
40075;BME280;26529;51.530;11.754;2023-04-01T16:40:43;98612.97;;;19.33;45.61
40075;BME280;26529;51.530;11.754;2023-04-01T16:43:18;98620.94;;;19.33;45.48
40075;BME280;26529;51.530;11.754;2023-04-01T16:46:14;98622.75;;;19.33;45.58
40075;BME280;26529;51.530;11.754;2023-04-01T16:51:53;98629.06;;;19.32;45.40
40075;BME280;26529;51.530;11.754;2023-04-01T16:54:35;98635.34;;;19.31;45.70
40075;BME280;26529;51.530;11.754;2023-04-01T16:57:12;98644.13;;;19.31;45.72
40075;BME280;26529;51.530;11.754;2023-04-01T17:02:43;98639.69;;;19.32;45.64
40075;BME280;26529;51.530;11.754;2023-04-01T17:05:12;98651.16;;;19.32;45.65
40075;BME280;26529;51.530;11.754;2023-04-01T17:07:56;98650.31;;;19.32;45.70
40075;BME280;26529;51.530;11.754;2023-04-01T17:18:45;98662.91;;;19.30;45.64
40075;BME280;26529;51.530;11.754;2023-04-01T17:21:20;98664.00;;;19.27;45.69
40075;BME280;26529;51.530;11.754;2023-04-01T17:26:58;98671.84;;;19.29;45.67
40075;BME280;26529;51.530;11.754;2023-04-01T17:29:56;98687.81;;;19.29;45.61
40075;BME280;26529;51.530;11.754;2023-04-01T17:32:54;98684.16;;;19.30;45.57
40075;BME280;26529;51.530;11.754;2023-04-01T17:35:31;98683.59;;;19.26;45.73
40075;BME280;26529;51.530;11.754;2023-04-01T17:38:13;98695.06;;;19.27;45.63
40075;BME280;26529;51.530;11.754;2023-04-01T17:43:33;98698.69;;;19.25;45.49
40075;BME280;26529;51.530;11.754;2023-04-01T17:46:31;98709.06;;;19.29;45.67
40075;BME280;26529;51.530;11.754;2023-04-01T17:49:16;98705.84;;;19.25;45.69
40075;BME280;26529;51.530;11.754;2023-04-01T17:54:41;98717.28;;;19.25;45.63
40075;BME280;26529;51.530;11.754;2023-04-01T18:08:07;98728.91;;;19.24;45.62
40075;BME280;26529;51.530;11.754;2023-04-01T18:11:00;98737.56;;;19.27;45.53
40075;BME280;26529;51.530;11.754;2023-04-01T18:19:38;98756.31;;;19.25;45.57
40075;BME280;26529;51.530;11.754;2023-04-01T18:22:19;98761.63;;;19.25;45.71
40075;BME280;26529;51.530;11.754;2023-04-01T18:25:01;98767.78;;;19.25;45.67
40075;BME280;26529;51.530;11.754;2023-04-01T18:30:11;98782.03;;;19.24;45.63
40075;BME280;26529;51.530;11.754;2023-04-01T18:32:57;98777.72;;;19.23;45.73
40075;BME280;26529;51.530;11.754;2023-04-01T18:38:00;98787.47;;;19.23;45.69
40075;BME280;26529;51.530;11.754;2023-04-01T18:40:38;98794.47;;;19.24;45.70
40075;BME280;26529;51.530;11.754;2023-04-01T18:43:16;98797.97;;;19.24;45.83
40075;BME280;26529;51.530;11.754;2023-04-01T18:46:00;98802.44;;;19.24;45.75
40075;BME280;26529;51.530;11.754;2023-04-01T18:48:40;98806.94;;;19.23;45.77
40075;BME280;26529;51.530;11.754;2023-04-01T18:51:13;98812.38;;;19.22;45.78
40075;BME280;26529;51.530;11.754;2023-04-01T18:53:45;98805.25;;;19.22;45.84
40075;BME280;26529;51.530;11.754;2023-04-01T18:56:22;98817.56;;;19.23;45.70
40075;BME280;26529;51.530;11.754;2023-04-01T19:01:38;98831.84;;;19.22;45.87
40075;BME280;26529;51.530;11.754;2023-04-01T19:04:30;98826.53;;;19.22;45.57
40075;BME280;26529;51.530;11.754;2023-04-01T19:07:19;98839.81;;;19.22;45.64
40075;BME280;26529;51.530;11.754;2023-04-01T19:09:48;98852.22;;;19.22;45.74